Time;durP1;ratioP1;P1;durP2;ratioP2;P2;SDS_P1;SDS_P2;PMS_P1;PMS_P2;Temp;Humidity;BMP_temperature;BMP_pressure;BME280_temperature;BME280_humidity;BME280_pressure;Samples;Min_cycle;Max_cycle;Signal;HPM_P1;HPM_P2
2023/08/03 00:01:45;;;;;;;11.00;10.70;;;;;;;-141.02;100.00;39604.63;5133790;27;20283;-59
2023/08/03 00:04:12;;;;;;;10.70;10.40;;;;;;;-141.02;100.00;39573.94;5133819;27;20751;-59
2023/08/03 00:06:39;;;;;;;10.57;10.27;;;;;;;-141.02;100.00;39570.13;5133717;27;20621;-58
2023/08/03 00:09:06;;;;;;;10.20;9.90;;;;;;;-141.02;100.00;39593.13;5133895;27;20364;-62
2023/08/03 00:11:34;;;;;;;10.50;10.20;;;;;;;-141.02;100.00;39616.13;5133592;27;20649;-66
2023/08/03 00:14:01;;;;;;;10.38;10.07;;;;;;;-141.02;100.00;39610.38;5133516;27;20235;-62
2023/08/03 00:16:28;;;;;;;10.35;10.05;;;;;;;-141.02;100.00;39637.25;5133857;27;20276;-60
2023/08/03 00:18:55;;;;;;;10.40;10.10;;;;;;;-141.02;100.00;39662.16;5133460;27;20315;-58
2023/08/03 00:21:22;;;;;;;10.38;10.07;;;;;;;-141.02;100.00;39700.53;5133406;27;20196;-65
2023/08/03 00:23:49;;;;;;;10.15;9.85;;;;;;;-141.02;100.00;39713.97;5133830;27;20192;-65
2023/08/03 00:26:16;;;;;;;10.02;9.73;;;;;;;-141.02;100.00;39742.72;5133681;27;20287;-65
2023/08/03 00:28:44;;;;;;;9.75;9.45;;;;;;;-141.02;100.00;39794.50;5133681;27;20193;-66
2023/08/03 00:31:11;;;;;;;10.00;9.70;;;;;;;-141.02;100.00;39802.19;5133209;27;20773;-62
2023/08/03 00:33:38;;;;;;;10.00;9.70;;;;;;;-141.02;100.00;39875.06;5133594;27;20284;-61
2023/08/03 00:36:05;;;;;;;10.27;9.98;;;;;;;-141.02;100.00;39903.84;5133584;27;20683;-66
2023/08/03 00:38:32;;;;;;;9.73;9.43;;;;;;;-141.02;100.00;40030.44;5133145;27;20738;-63
2023/08/03 00:40:59;;;;;;;10.00;9.70;;;;;;;-141.02;100.00;40107.16;5133473;27;20283;-62
2023/08/03 00:43:26;;;;;;;9.90;9.60;;;;;;;-141.02;100.00;40237.59;5133089;27;20243;-64
2023/08/03 00:45:55;;;;;;;9.60;9.30;;;;;;;-141.02;100.00;40406.41;5132885;27;20756;-66
2023/08/03 00:48:22;;;;;;;9.38;9.10;;;;;;;-141.02;100.00;40627.03;5133328;27;20661;-63
2023/08/03 00:50:49;;;;;;;9.43;9.13;;;;;;;-141.02;100.00;40943.59;5132933;27;20271;-63
2023/08/03 00:53:16;;;;;;;9.18;8.98;;;;;;;-141.02;100.00;41402.19;5132999;27;20670;-59
2023/08/03 00:55:43;;;;;;;9.10;8.90;;;;;;;-141.02;100.00;41619.03;5133243;27;20603;-63
2023/08/03 00:58:10;;;;;;;9.18;8.98;;;;;;;-141.02;100.00;41822.47;5132971;27;20223;-64
2023/08/03 01:00:37;;;;;;;9.57;9.27;;;;;;;-141.02;100.00;42052.78;5132859;27;20711;-63
2023/08/03 01:03:05;;;;;;;9.35;9.10;;;;;;;-141.02;100.00;42298.44;5132911;27;20353;-60
2023/08/03 01:05:33;;;;;;;9.20;9.00;;;;;;;-141.02;100.00;42528.78;5133185;27;20275;-65
2023/08/03 01:08:00;;;;;;;9.00;8.80;;;;;;;-141.02;100.00;42876.25;5132846;27;20197;-61
2023/08/03 01:10:28;;;;;;;9.23;9.02;;;;;;;-141.02;100.00;43027.91;5133046;27;20228;-64
2023/08/03 01:12:56;;;;;;;9.05;8.85;;;;;;;-141.02;100.00;42993.34;5133060;27;20207;-65
2023/08/03 01:15:23;;;;;;;8.75;8.55;;;;;;;-141.02;100.00;42730.34;5133070;27;20196;-60
2023/08/03 01:17:51;;;;;;;9.65;9.35;;;;;;;-141.02;100.00;42440.50;5133071;27;20715;-61
2023/08/03 01:20:20;;;;;;;9.93;9.63;;;;;;;-141.02;100.00;42263.91;5136212;27;20231;-65
2023/08/03 01:22:48;;;;;;;9.57;9.27;;;;;;;-141.02;100.00;42298.44;5137223;27;20196;-58
2023/08/03 01:25:15;;;;;;;10.07;9.77;;;;;;;-141.02;100.00;42235.09;5137203;27;20247;-59
2023/08/03 01:27:47;;;;;;;9.88;9.57;;;;;;;-141.02;100.00;42455.84;5137160;27;20275;-61
2023/08/03 01:30:14;;;;;;;9.48;9.18;;;;;;;-141.02;100.00;42617.09;5137017;27;20240;-61
2023/08/03 01:32:41;;;;;;;9.50;9.20;;;;;;;-141.02;100.00;42793.69;5137038;27;20224;-61
2023/08/03 01:35:09;;;;;;;9.20;9.00;;;;;;;-141.02;100.00;43066.31;5136612;27;20684;-60
2023/08/03 01:37:36;;;;;;;9.60;9.30;;;;;;;-141.02;100.00;43160.38;5136679;27;20678;-60
2023/08/03 01:40:06;;;;;;;9.70;9.40;;;;;;;-141.02;100.00;43204.56;5136916;27;20234;-65
2023/08/03 01:42:33;;;;;;;9.60;9.30;;;;;;;-141.02;100.00;43214.16;5136900;27;20269;-64
2023/08/03 01:45:00;;;;;;;9.15;8.95;;;;;;;-141.02;100.00;43223.75;5136349;27;20228;-60
2023/08/03 01:47:27;;;;;;;9.20;9.00;;;;;;;-141.02;100.00;43544.41;5136710;27;20227;-59
2023/08/03 01:49:54;;;;;;;8.90;8.70;;;;;;;-141.02;100.00;43819.00;5136699;27;20664;-59
2023/08/03 01:52:21;;;;;;;9.20;9.00;;;;;;;-141.02;100.00;44160.81;5136406;27;20738;-57
2023/08/03 01:54:48;;;;;;;9.00;8.80;;;;;;;-141.02;100.00;44268.38;5136569;27;20235;-59
2023/08/03 01:57:17;;;;;;;8.98;8.77;;;;;;;-141.02;100.00;44260.69;5136262;27;20743;-59
2023/08/03 01:59:44;;;;;;;9.85;9.55;;;;;;;-141.02;100.00;44206.91;5136218;27;20639;-60
2023/08/03 02:02:11;;;;;;;9.80;9.50;;;;;;;-141.02;100.00;43899.66;5136188;27;20208;-60
2023/08/03 02:04:38;;;;;;;9.95;9.65;;;;;;;-141.02;100.00;44007.19;5136128;27;20287;-60
2023/08/03 02:07:10;;;;;;;9.18;8.98;;;;;;;-141.02;100.00;44598.72;5136398;27;20279;-58
2023/08/03 02:09:37;;;;;;;8.95;8.75;;;;;;;-141.02;100.00;44569.91;5136309;27;20189;-59
2023/08/03 02:12:04;;;;;;;10.05;9.75;;;;;;;-141.02;100.00;44429.72;5136241;27;20196;-60
2023/08/03 02:14:33;;;;;;;8.95;8.75;;;;;;;-141.02;100.00;44648.66;5135907;27;20192;-60
2023/08/03 02:17:00;;;;;;;9.07;8.88;;;;;;;-141.02;100.00;44464.28;5135825;27;20227;-63
2023/08/03 02:19:27;;;;;;;9.13;8.93;;;;;;;-141.02;100.00;44679.41;5136134;27;20220;-59
2023/08/03 02:21:54;;;;;;;9.40;9.10;;;;;;;-141.02;100.00;45251.84;5136025;27;20196;-65
2023/08/03 02:24:21;;;;;;;9.20;9.00;;;;;;;-141.02;100.00;45774.44;5136140;27;20655;-62
2023/08/03 02:26:48;;;;;;;8.98;8.77;;;;;;;-141.02;100.00;46704.53;5136013;27;20196;-64
2023/08/03 02:29:15;;;;;;;8.60;8.40;;;;;;;-141.02;100.00;47877.13;5135579;27;20283;-60
2023/08/03 02:31:43;;;;;;;8.60;8.40;;;;;;;-141.02;100.00;48900.13;5135575;27;20232;-60
2023/08/03 02:34:10;;;;;;;8.02;7.82;;;;;;;-141.02;100.00;50100.41;5135791;27;20193;-62
2023/08/03 02:36:37;;;;;;;8.10;7.90;;;;;;;-141.02;100.00;51004.75;5135588;27;20192;-63
2023/08/03 02:39:04;;;;;;;8.10;7.90;;;;;;;-141.02;100.00;51724.56;5135468;27;20693;-60
2023/08/03 02:41:33;;;;;;;8.43;8.23;;;;;;;-141.02;100.00;51932.44;5135661;27;20757;-59
2023/08/03 02:44:00;;;;;;;8.45;8.25;;;;;;;-141.02;100.00;52825.75;5135733;27;20189;-63
2023/08/03 02:46:27;;;;;;;8.50;8.30;;;;;;;-141.02;100.00;54225.81;5135172;27;20228;-61
2023/08/03 02:48:56;;;;;;;8.32;8.13;;;;;;;-141.02;100.00;55279.63;5135601;27;20231;-62
2023/08/03 02:51:23;;;;;;;8.25;8.05;;;;;;;-141.02;100.00;56019.63;5135391;27;20228;-62
2023/08/03 02:53:49;;;;;;;7.97;7.78;;;;;;;-141.02;100.00;57006.53;5135482;27;20231;-59
2023/08/03 02:56:16;;;;;;;8.00;7.80;;;;;;;-141.02;100.00;57500.06;5135157;27;20279;-65
2023/08/03 02:58:43;;;;;;;7.97;7.78;;;;;;;-141.02;100.00;57993.72;5135358;27;20279;-63
2023/08/03 03:01:11;;;;;;;8.10;7.90;;;;;;;-141.02;100.00;58240.56;5135303;27;20197;-60
2023/08/03 03:03:38;;;;;;;8.73;8.52;;;;;;;-141.02;100.00;58487.41;5135232;27;20196;-60
2023/08/03 03:06:07;;;;;;;8.60;8.40;;;;;;;-141.02;100.00;58981.19;5134922;27;20235;-61
2023/08/03 03:08:34;;;;;;;8.07;7.88;;;;;;;-141.02;100.00;58981.19;5135217;27;20200;-60
2023/08/03 03:11:01;;;;;;;8.65;8.45;;;;;;;-141.02;100.00;58981.19;5134748;27;20216;-63
2023/08/03 03:13:28;;;;;;;8.60;8.40;;;;;;;-141.02;100.00;59228.09;5134844;27;20759;-60
2023/08/03 03:15:58;;;;;;;8.70;8.50;;;;;;;-141.02;100.00;59968.94;5135031;27;20197;-63
2023/08/03 03:18:28;;;;;;;8.75;8.55;;;;;;;-141.02;100.00;60709.94;5134983;27;20279;-58
2023/08/03 03:20:56;;;;;;;9.00;8.80;;;;;;;-141.02;100.00;61451.13;5134926;27;20275;-60
2023/08/03 03:23:24;;;;;;;9.10;8.90;;;;;;;-141.02;100.00;61451.13;5134968;27;20220;-59
2023/08/03 03:25:51;;;;;;;8.90;8.70;;;;;;;-141.02;100.00;62933.94;5135471;27;20654;-60
2023/08/03 03:28:18;;;;;;;8.80;8.60;;;;;;;-141.02;100.00;63428.38;5134499;27;20228;-61
2023/08/03 03:30:45;;;;;;;8.60;8.40;;;;;;;-141.02;100.00;63428.38;5134718;27;20305;-61
2023/08/03 03:33:12;;;;;;;8.85;8.65;;;;;;;-141.02;100.00;63922.84;5134407;27;20385;-61
2023/08/03 03:35:39;;;;;;;9.18;8.98;;;;;;;-141.02;100.00;63428.38;5134394;27;20243;-62
2023/08/03 03:38:06;;;;;;;8.70;8.50;;;;;;;-141.02;100.00;63922.84;5134667;27;20234;-62
2023/08/03 03:40:34;;;;;;;8.65;8.45;;;;;;;-141.02;100.00;64664.72;5134603;27;20199;-62
2023/08/03 03:43:01;;;;;;;8.80;8.60;;;;;;;-141.02;100.00;65406.75;5133803;27;20248;-62
2023/08/03 03:45:29;;;;;;;8.55;8.35;;;;;;;-141.02;100.00;65406.75;5134044;27;20267;-61
2023/08/03 03:47:56;;;;;;;8.80;8.60;;;;;;;-141.02;100.00;65654.13;5134153;27;20235;-61
2023/08/03 03:50:23;;;;;;;8.82;8.63;;;;;;;-141.02;100.00;66148.94;5134308;27;20219;-59
2023/08/03 03:52:55;;;;;;;8.60;8.40;;;;;;;-141.02;100.00;68624.09;5134381;27;20215;-63
2023/08/03 03:55:43;;;;;;;9.00;8.80;;;;;;;-141.02;100.00;67881.38;5134012;27;20279;-59
2023/08/03 03:58:33;;;;;;;9.70;9.40;;;;;;;-141.02;100.00;64664.72;5134028;27;20710;-61
2023/08/03 04:01:21;;;;;;;10.40;10.10;;;;;;;-141.02;100.00;61204.03;5133972;27;20192;-61
2023/08/03 04:04:15;;;;;;;10.63;10.32;;;;;;;-141.02;100.00;58240.56;5133782;27;20225;-60
2023/08/03 04:07:03;;;;;;;10.90;10.60;;;;;;;-141.02;100.00;56139.13;5133691;27;20196;-60
2023/08/03 04:09:49;;;;;;;12.10;11.70;;;;;;;-141.02;100.00;55441.50;5133739;27;20279;-63
2023/08/03 04:12:22;;;;;;;12.38;11.98;;;;;;;-141.02;100.00;53588.31;5134210;27;20216;-58
2023/08/03 04:18:51;;;;;;;12.82;12.43;;;;;;;-141.02;100.00;50666.09;5133611;27;20691;-61
2023/08/03 04:21:24;;;;;;;13.10;12.70;;;;;;;-141.02;100.00;50585.25;5134195;27;20300;-59
2023/08/03 04:27:18;;;;;;;14.18;13.68;;;;;;;-141.02;100.00;49582.94;5133325;27;20737;-65
2023/08/03 04:30:32;;;;;;;15.45;14.85;;;;;;;-141.02;100.00;48411.66;5133363;27;20566;-63
2023/08/03 04:32:59;;;;;;;15.95;15.35;;;;;;;-141.02;100.00;48036.72;5133442;27;20184;-60
2023/08/03 04:35:49;;;;;;;16.35;15.75;;;;;;;-141.02;100.00;47707.94;5133323;27;20231;-59
2023/08/03 04:38:37;;;;;;;16.60;15.90;;;;;;;-141.02;97.91;47400.34;5133209;27;20199;-59
2023/08/03 04:41:56;;;;;;;17.27;16.58;;;;;;;-141.02;95.50;47431.09;5133203;27;20235;-61
2023/08/03 04:47:47;;;;;;;18.80;18.00;;;;;;;-141.02;84.99;46546.94;5133341;27;20176;-59
2023/08/03 04:57:30;;;;;;;18.98;18.17;;;;;;;-141.02;83.77;46170.28;5133697;27;20229;-66
2023/08/03 05:00:36;;;;;;;19.20;18.40;;;;;;;-141.02;79.84;46243.28;5132990;27;20221;-64
2023/08/03 05:03:04;;;;;;;19.25;18.35;;;;;;;-141.02;78.45;46373.97;5133002;28;20567;-61
2023/08/03 05:05:31;;;;;;;19.20;18.30;;;;;;;-141.02;77.79;46151.06;5133306;27;20253;-61
2023/08/03 05:07:58;;;;;;;19.30;18.40;;;;;;;-141.02;77.11;46070.34;5132901;28;20227;-60
2023/08/03 05:10:25;;;;;;;19.48;18.58;;;;;;;-141.02;76.48;45845.53;5132871;28;20655;-63
2023/08/03 05:12:52;;;;;;;19.45;18.55;;;;;;;-141.02;80.01;45178.84;5132693;28;20263;-63
2023/08/03 05:15:19;;;;;;;19.50;18.60;;;;;;;-141.02;82.68;45138.50;5133090;28;20192;-61
2023/08/03 05:17:49;;;;;;;19.38;18.48;;;;;;;-141.02;81.90;45121.22;5133106;28;20227;-62
2023/08/03 05:20:17;;;;;;;18.67;17.77;;;;;;;-141.02;84.20;45036.69;5133121;28;20279;-60
2023/08/03 05:22:44;;;;;;;18.30;17.50;;;;;;;-141.02;86.33;45186.53;5132802;28;20287;-64
2023/08/03 05:25:11;;;;;;;18.58;17.67;;;;;;;-141.02;84.43;45046.28;5133002;28;20275;-64
2023/08/03 05:27:39;;;;;;;17.70;16.90;;;;;;;-141.02;86.90;44946.41;5133087;27;20245;-64
2023/08/03 05:30:08;;;;;;;18.05;17.25;;;;;;;-141.02;85.80;44932.97;5132691;28;20193;-65
2023/08/03 05:32:35;;;;;;;17.40;16.63;;;;;;;-141.02;84.95;45090.47;5132999;27;20227;-64
2023/08/03 05:35:02;;;;;;;17.77;16.98;;;;;;;-141.02;85.76;45042.44;5132987;28;20193;-66
2023/08/03 05:37:30;;;;;;;17.58;16.77;;;;;;;-141.02;86.95;45153.88;5132952;28;20220;-66
2023/08/03 05:39:57;;;;;;;17.98;17.17;;;;;;;-141.02;87.32;44848.44;5132914;28;20199;-65
2023/08/03 05:42:25;;;;;;;17.25;16.55;;;;;;;-141.02;87.85;44877.25;5132577;28;20232;-66
2023/08/03 05:44:53;;;;;;;17.40;16.70;;;;;;;-141.02;89.57;44932.97;5132384;28;20267;-65
2023/08/03 05:47:20;;;;;;;17.05;16.35;;;;;;;-141.02;89.59;45040.53;5132458;28;20684;-66
2023/08/03 05:49:47;;;;;;;17.67;16.98;;;;;;;-141.02;89.46;44817.69;5132580;27;20690;-65
2023/08/03 05:52:15;;;;;;;18.05;17.25;;;;;;;-141.02;89.43;44936.78;5132477;27;20270;-64
2023/08/03 05:54:45;;;;;;;16.77;16.08;;;;;;;-141.02;90.04;45088.56;5132414;28;20279;-63
2023/08/03 05:57:13;;;;;;;18.00;17.20;;;;;;;-141.02;91.97;44907.97;5132759;27;20275;-65
2023/08/03 05:59:40;;;;;;;17.42;16.63;;;;;;;-141.02;91.46;45115.44;5132754;28;20192;-65
2023/08/03 06:02:34;;;;;;;18.15;17.35;;;;;;;-141.02;89.21;45067.44;5132736;28;20189;-64
2023/08/03 06:05:01;;;;;;;18.00;17.20;;;;;;;-141.02;87.91;45238.41;5133472;27;20189;-66
2023/08/03 06:07:28;;;;;;;18.08;17.27;;;;;;;-141.02;86.56;45340.22;5136427;27;20197;-65
2023/08/03 06:09:56;;;;;;;18.10;17.30;;;;;;;-141.02;87.02;45009.78;5136024;27;20285;-65
2023/08/03 06:12:24;;;;;;;18.00;17.20;;;;;;;-141.02;85.59;45002.09;5136280;27;20232;-66
2023/08/03 06:14:51;;;;;;;17.83;17.13;;;;;;;-141.02;85.66;45142.34;5136244;27;20277;-65
2023/08/03 06:17:22;;;;;;;18.42;17.63;;;;;;;-141.02;85.24;44971.38;5135944;27;20228;-65
2023/08/03 06:19:49;;;;;;;18.35;17.55;;;;;;;-141.02;83.84;44881.09;5136189;27;20196;-67
2023/08/03 06:22:21;;;;;;;18.20;17.40;;;;;;;-141.02;84.28;44825.38;5136105;27;20716;-61
2023/08/03 06:24:48;;;;;;;18.45;17.65;;;;;;;-141.02;83.75;45071.25;5135784;27;20635;-64
2023/08/03 06:27:17;;;;;;;18.17;17.38;;;;;;;-141.02;83.73;45121.22;5135732;27;20708;-66
2023/08/03 06:29:44;;;;;;;18.55;17.75;;;;;;;-141.02;81.66;45386.31;5135848;27;20276;-66
2023/08/03 06:32:23;;;;;;;18.77;17.98;;;;;;;-141.02;81.98;45159.63;5135823;27;20312;-60
2023/08/03 06:34:50;;;;;;;18.63;17.83;;;;;;;-141.02;80.58;45374.81;5135962;27;20192;-66
2023/08/03 06:37:17;;;;;;;19.23;18.33;;;;;;;-141.02;79.75;45609.19;5135509;27;20231;-60
2023/08/03 06:39:44;;;;;;;18.95;18.05;;;;;;;-141.02;77.84;45597.66;5135490;27;20682;-62
2023/08/03 06:42:10;;;;;;;19.00;18.10;;;;;;;-141.02;77.98;45555.41;5135435;27;20699;-60
2023/08/03 06:44:39;;;;;;;18.92;18.10;;;;;;;-141.02;77.84;45618.81;5135278;27;20224;-58
2023/08/03 06:47:06;;;;;;;18.92;18.02;;;;;;;-141.02;77.94;46176.03;5135764;27;20223;-59
2023/08/03 06:49:33;;;;;;;19.00;18.10;;;;;;;-141.02;76.06;45916.63;5135616;27;20249;-62
2023/08/03 06:52:01;;;;;;;19.20;18.30;;;;;;;-141.02;75.49;45922.38;5135500;27;20256;-60
2023/08/03 06:54:28;;;;;;;18.65;17.75;;;;;;;-141.02;75.43;46058.81;5135121;27;20574;-63
2023/08/03 06:56:55;;;;;;;19.42;18.52;;;;;;;-141.02;75.23;46135.69;5135557;27;20620;-59
2023/08/03 06:59:22;;;;;;;19.08;18.17;;;;;;;-141.02;75.37;46204.88;5135495;27;20697;-61
2023/08/03 07:01:52;;;;;;;19.00;18.10;;;;;;;-141.02;73.68;46370.13;5135017;27;20721;-61
2023/08/03 07:04:19;;;;;;;19.38;18.48;;;;;;;-141.02;73.64;46439.31;5135011;27;20245;-64
2023/08/03 07:06:47;;;;;;;19.20;18.30;;;;;;;-141.02;73.99;46204.88;5135212;27;20292;-63
2023/08/03 07:09:14;;;;;;;18.80;17.90;;;;;;;-141.02;73.25;46279.81;5134972;27;20197;-62
2023/08/03 07:11:41;;;;;;;19.05;18.15;;;;;;;-141.02;73.50;46345.16;5134723;27;20307;-63
2023/08/03 07:14:09;;;;;;;19.42;18.42;;;;;;;-141.02;72.83;46297.09;5135062;27;20245;-66
2023/08/03 07:16:38;;;;;;;19.02;18.02;;;;;;;-141.02;72.42;46779.50;5133950;27;20197;-63
2023/08/03 07:19:10;;;;;;;18.77;17.77;;;;;;;-141.02;73.11;46835.22;5134939;27;20195;-64
2023/08/03 07:21:37;;;;;;;19.17;18.17;;;;;;;-141.02;71.24;47150.47;5135005;27;20189;-66
2023/08/03 07:24:04;;;;;;;19.23;18.23;;;;;;;-141.02;69.14;46562.31;5134944;27;20196;-63
2023/08/03 07:26:31;;;;;;;19.15;18.15;;;;;;;-141.02;68.54;46729.53;5134587;27;20228;-61
2023/08/03 07:28:58;;;;;;;19.35;18.35;;;;;;;-141.02;68.42;46623.81;5134456;27;20739;-60
2023/08/03 07:31:26;;;;;;;19.25;18.25;;;;;;;-141.02;67.20;46650.72;5134786;27;20192;-64
2023/08/03 07:33:53;;;;;;;19.00;18.00;;;;;;;-141.02;67.32;46708.38;5134680;27;20275;-63
2023/08/03 07:36:21;;;;;;;19.30;18.30;;;;;;;-141.02;67.42;46545.00;5135143;27;20283;-60
2023/08/03 07:38:48;;;;;;;19.30;18.30;;;;;;;-141.02;66.68;46354.75;5134645;27;20199;-61
2023/08/03 07:41:15;;;;;;;19.45;18.45;;;;;;;-141.02;67.97;46654.56;5134194;27;20195;-67
2023/08/03 07:43:42;;;;;;;19.45;18.45;;;;;;;-141.02;67.21;46570.00;5134536;27;20283;-63
2023/08/03 07:46:09;;;;;;;18.23;17.33;;;;;;;-141.02;67.21;47073.56;5134023;27;20698;-60
2023/08/03 07:48:36;;;;;;;18.55;17.55;;;;;;;-141.02;66.71;47031.28;5134150;27;20257;-62
2023/08/03 07:51:11;;;;;;;19.75;18.70;;;;;;;-141.02;65.12;46981.31;5134437;27;20638;-60
2023/08/03 07:53:40;;;;;;;19.58;18.48;;;;;;;-141.02;63.98;46742.97;5134014;27;20304;-62
2023/08/03 07:56:15;;;;;;;19.40;18.40;;;;;;;-141.02;64.40;46937.09;5134339;27;20266;-62
2023/08/03 07:58:42;;;;;;;19.55;18.48;;;;;;;-141.02;63.85;46648.78;5133918;27;20194;-61
2023/08/03 08:01:09;;;;;;;20.17;19.08;;;;;;;-141.02;63.13;46946.72;5133885;27;20195;-60
2023/08/03 08:03:36;;;;;;;33.92;32.03;;;;;;;-141.02;62.12;46675.69;5134689;27;20192;-60
2023/08/03 08:06:06;;;;;;;53.45;50.35;;;;;;;-141.02;62.17;45755.22;5133769;27;20639;-61
2023/08/03 08:08:34;;;;;;;42.13;39.72;;;;;;;-141.02;60.97;45956.97;5133655;27;20197;-60
2023/08/03 08:11:02;;;;;;;38.97;36.78;;;;;;;-141.02;61.76;46614.19;5133976;27;20631;-61
2023/08/03 08:13:29;;;;;;;19.73;18.63;;;;;;;-141.02;60.42;46235.59;5133595;27;20596;-66
2023/08/03 08:16:00;;;;;;;19.52;18.42;;;;;;;-141.02;61.27;46562.31;5133832;27;20192;-61
2023/08/03 08:18:27;;;;;;;19.08;17.98;;;;;;;-141.02;60.32;46154.91;5133933;27;20207;-60
2023/08/03 08:20:57;;;;;;;19.17;18.08;;;;;;;-141.02;60.97;45736.00;5133431;27;20549;-60
2023/08/03 08:23:24;;;;;;;19.35;18.25;;;;;;;-141.02;62.16;46199.09;5133504;27;20196;-67
2023/08/03 08:25:52;;;;;;;19.30;18.20;;;;;;;-141.02;60.76;47069.72;5133426;27;20589;-65
2023/08/03 08:28:20;;;;;;;19.50;18.40;;;;;;;-141.02;58.78;46377.81;5133062;27;20234;-60
2023/08/03 08:30:48;;;;;;;18.98;17.98;;;;;;;-141.02;58.63;46195.25;5133355;27;20714;-59
2023/08/03 08:33:16;;;;;;;19.25;18.15;;;;;;;-141.02;59.34;45993.47;5133209;27;20679;-63
2023/08/03 08:35:43;;;;;;;18.73;17.63;;;;;;;-141.02;59.13;46120.31;5133272;27;20674;-61
2023/08/03 08:38:11;;;;;;;18.38;17.38;;;;;;;-141.02;58.48;46010.78;5133495;27;20227;-66
2023/08/03 08:40:38;;;;;;;18.25;17.25;;;;;;;-141.02;59.56;46020.38;5133516;27;20657;-63
2023/08/03 08:43:05;;;;;;;18.25;17.35;;;;;;;-141.02;58.56;46122.22;5133186;27;20227;-66
2023/08/03 08:45:34;;;;;;;17.95;17.05;;;;;;;-141.02;58.31;46358.59;5133455;27;20774;-62
2023/08/03 08:48:02;;;;;;;18.20;17.20;;;;;;;-141.02;57.27;45799.41;5133106;27;20697;-60
2023/08/03 08:50:30;;;;;;;18.63;17.63;;;;;;;-141.02;58.47;46081.88;5133386;27;20228;-62
2023/08/03 08:52:58;;;;;;;18.55;17.55;;;;;;;-141.02;57.52;45932.00;5133312;27;20269;-62
2023/08/03 08:55:27;;;;;;;18.83;17.73;;;;;;;-141.02;57.99;45480.47;5132979;27;20193;-67
2023/08/03 08:57:55;;;;;;;19.00;17.90;;;;;;;-141.02;57.88;45586.13;5133279;27;20198;-62
2023/08/03 09:00:24;;;;;;;18.73;17.73;;;;;;;-141.02;57.66;45536.19;5133577;27;20207;-61
2023/08/03 09:02:54;;;;;;;18.13;17.13;;;;;;;-141.02;57.32;45822.47;5132928;27;20200;-64
2023/08/03 09:05:24;;;;;;;18.55;17.55;;;;;;;-141.02;57.60;45981.97;5132948;28;20595;-62
2023/08/03 09:08:00;;;;;;;18.83;17.73;;;;;;;-141.02;56.07;46204.88;5133708;27;20204;-68
2023/08/03 09:10:27;;;;;;;19.23;18.23;;;;;;;-141.02;55.58;46024.22;5132917;27;20185;-64
2023/08/03 09:12:55;;;;;;;19.00;17.90;;;;;;;-141.02;55.95;46129.91;5133110;27;20324;-63
2023/08/03 09:15:37;;;;;;;18.55;17.45;;;;;;;-141.02;56.38;45855.13;5133157;28;20196;-63
2023/08/03 09:18:06;;;;;;;18.98;17.88;;;;;;;-141.02;55.46;46550.78;5132809;27;20657;-63
2023/08/03 09:20:33;;;;;;;19.45;18.35;;;;;;;-141.02;54.67;46170.28;5132759;28;20227;-64
2023/08/03 09:23:01;;;;;;;19.48;18.38;;;;;;;-141.02;54.82;45889.72;5133094;27;20287;-62
2023/08/03 09:25:29;;;;;;;18.48;17.40;;;;;;;-141.02;54.91;45568.84;5133066;28;20220;-66
2023/08/03 09:27:57;;;;;;;18.92;17.83;;;;;;;-141.02;55.32;45766.75;5133071;27;20245;-60
2023/08/03 09:30:25;;;;;;;18.83;17.73;;;;;;;-141.02;54.91;45784.03;5132664;28;20224;-64
2023/08/03 09:32:52;;;;;;;19.30;18.30;;;;;;;-141.02;55.88;46650.72;5132974;27;20235;-63
2023/08/03 09:35:22;;;;;;;20.38;19.38;;;;;;;-141.02;54.85;45901.25;5133037;28;20325;-63
2023/08/03 09:37:50;;;;;;;19.77;18.77;;;;;;;-141.02;53.48;45736.00;5132690;27;20253;-61
2023/08/03 09:40:19;;;;;;;18.85;17.95;;;;;;;-141.02;54.14;46231.75;5134105;27;20196;-61
2023/08/03 09:42:48;;;;;;;21.23;20.13;;;;;;;-141.02;54.15;46053.06;5136648;27;20210;-61
2023/08/03 09:45:15;;;;;;;22.02;20.83;;;;;;;-141.02;54.13;46068.44;5136334;27;20228;-65
2023/08/03 09:47:43;;;;;;;21.20;20.10;;;;;;;-141.02;53.93;46072.28;5136907;27;20204;-64
2023/08/03 09:50:11;;;;;;;22.08;20.92;;;;;;;-141.02;53.19;46022.31;5136476;27;20197;-60
2023/08/03 09:52:44;;;;;;;21.15;20.05;;;;;;;-141.02;52.74;46616.13;5136636;27;20296;-68
2023/08/03 09:55:18;;;;;;;18.95;17.85;;;;;;;-141.02;52.39;47169.69;5136766;27;20223;-67
2023/08/03 09:57:52;;;;;;;18.63;17.63;;;;;;;-141.02;51.50;46458.53;5136461;27;20188;-66
2023/08/03 10:00:19;;;;;;;19.05;17.95;;;;;;;-141.02;51.17;46858.28;5136481;27;20220;-61
2023/08/03 10:02:52;;;;;;;19.05;18.05;;;;;;;-141.02;50.70;46318.25;5136451;27;20275;-62
2023/08/03 10:05:20;;;;;;;19.23;18.13;;;;;;;-141.02;50.54;45876.28;5136262;27;20271;-64
2023/08/03 10:07:57;;;;;;;19.27;18.17;;;;;;;-141.02;50.50;46174.13;5136425;27;20188;-62
2023/08/03 10:10:28;;;;;;;19.08;17.98;;;;;;;-141.02;50.17;45774.44;5136149;27;20183;-68
2023/08/03 10:12:59;;;;;;;19.25;18.15;;;;;;;-141.02;49.83;45924.31;5135979;27;20247;-60
2023/08/03 10:15:26;;;;;;;19.23;18.13;;;;;;;-141.02;51.20;45336.38;5136027;27;20631;-62
2023/08/03 10:17:54;;;;;;;19.45;18.35;;;;;;;-141.02;51.02;45271.06;5135974;27;20193;-63
2023/08/03 10:20:23;;;;;;;21.55;20.30;;;;;;;-141.02;51.35;45449.72;5136258;27;20232;-63
2023/08/03 10:23:09;;;;;;;19.58;18.48;;;;;;;-141.02;50.60;46039.59;5136076;27;20192;-65
2023/08/03 10:25:54;;;;;;;19.17;18.08;;;;;;;-141.02;50.09;45584.22;5135852;27;20188;-66
2023/08/03 10:28:22;;;;;;;19.77;18.67;;;;;;;-141.02;50.38;45321.00;5135779;27;20278;-65
2023/08/03 10:31:11;;;;;;;18.52;17.42;;;;;;;-141.02;50.97;45382.50;5135692;27;20670;-61
2023/08/03 10:34:17;;;;;;;19.27;18.27;;;;;;;-141.02;50.25;45864.75;5135646;27;20212;-63
2023/08/03 10:36:51;;;;;;;19.20;18.17;;;;;;;-141.02;48.88;45720.63;5135654;27;20654;-67
2023/08/03 10:39:53;;;;;;;17.88;16.88;;;;;;;-141.02;49.24;45566.94;5135478;27;20585;-63
2023/08/03 10:42:28;;;;;;;18.35;17.30;;;;;;;-141.02;50.02;45914.69;5135419;27;20183;-69
2023/08/03 10:45:16;;;;;;;18.38;17.27;;;;;;;-141.02;49.09;45970.44;5135261;27;20318;-63
2023/08/03 10:47:43;;;;;;;18.83;17.83;;;;;;;-141.02;49.85;45686.06;5135433;27;20251;-61
2023/08/03 10:50:10;;;;;;;19.08;17.98;;;;;;;-141.02;49.21;45328.69;5135321;27;20555;-69
2023/08/03 10:52:37;;;;;;;18.70;17.65;;;;;;;-141.02;49.81;45263.38;5135274;27;20265;-65
2023/08/03 10:55:24;;;;;;;18.30;17.27;;;;;;;-141.02;49.30;46249.06;5135321;27;20290;-67
2023/08/03 10:57:51;;;;;;;19.65;18.25;;;;;;;-141.02;48.58;46235.59;5135549;27;20192;-65
2023/08/03 11:00:18;;;;;;;19.67;18.48;;;;;;;-141.02;48.37;46581.53;5135402;27;20188;-64
2023/08/03 11:02:45;;;;;;;19.52;18.42;;;;;;;-141.02;48.17;46037.69;5135059;27;20195;-63
2023/08/03 11:05:13;;;;;;;19.33;18.23;;;;;;;-141.02;48.38;45540.03;5135376;27;20229;-68
2023/08/03 11:07:41;;;;;;;18.42;17.42;;;;;;;-141.02;48.38;45530.41;5134977;27;20339;-60
2023/08/03 11:10:11;;;;;;;18.48;17.48;;;;;;;-141.02;48.24;45651.47;5135281;27;20555;-67
2023/08/03 11:12:40;;;;;;;18.45;17.45;;;;;;;-141.02;48.12;45966.59;5135080;27;20223;-63
2023/08/03 11:15:08;;;;;;;20.08;18.98;;;;;;;-141.02;48.10;45639.94;5135160;27;20226;-64
2023/08/03 11:17:37;;;;;;;18.63;17.63;;;;;;;-141.02;48.36;45639.94;5134773;27;20282;-66
2023/08/03 11:20:07;;;;;;;19.13;17.80;;;;;;;-141.02;48.78;45551.56;5135728;27;20195;-64
2023/08/03 11:22:34;;;;;;;41.05;38.70;;;;;;;-141.02;48.88;45905.09;5134718;27;20192;-68
2023/08/03 11:25:06;;;;;;;42.58;40.17;;;;;;;-141.02;48.35;45947.38;5134648;27;20723;-68
2023/08/03 11:27:33;;;;;;;44.80;42.30;;;;;;;-141.02;48.45;45678.38;5134651;27;20195;-63
2023/08/03 11:30:03;;;;;;;35.88;33.92;;;;;;;-141.02;48.39;45547.72;5134515;27;20192;-65
2023/08/03 11:32:32;;;;;;;33.03;31.13;;;;;;;-141.02;47.82;45943.53;5134717;27;20184;-64
2023/08/03 11:35:00;;;;;;;20.35;18.95;;;;;;;-141.02;47.61;46139.53;5134335;27;20206;-67